Time;durP1;ratioP1;P1;durP2;ratioP2;P2;SDS_P1;SDS_P2;PMS_P1;PMS_P2;Temp;Humidity;BMP_temperature;BMP_pressure;BME280_temperature;BME280_humidity;BME280_pressure;Samples;Min_cycle;Max_cycle;Signal;HPM_P1;HPM_P2
2022/06/22 00:01:42;;;;;;;10.73;5.67;;;11.80;99.90;11.20;99891;;;;563204;251;24144;-79
2022/06/22 00:04:32;;;;;;;10.50;5.40;;;11.80;99.90;11.20;99892;;;;562761;251;24114;-78
2022/06/22 00:07:06;;;;;;;11.47;4.80;;;11.80;99.90;11.20;99892;;;;559874;251;24121;-84
2022/06/22 00:09:36;;;;;;;13.93;5.87;;;11.80;99.90;11.20;99888;;;;571360;251;24145;-79
2022/06/22 00:12:04;;;;;;;15.57;8.10;;;11.80;99.90;11.20;99887;;;;557943;251;35453;-81
2022/06/22 00:14:35;;;;;;;14.13;6.47;;;11.80;99.90;11.20;99892;;;;563194;251;24133;-84
2022/06/22 00:17:07;;;;;;;12.03;5.23;;;11.80;99.90;11.10;99887;;;;562657;251;24139;-81
2022/06/22 00:19:32;;;;;;;10.43;5.10;;;11.70;99.90;11.20;99884;;;;560025;251;24158;-83
2022/06/22 00:21:59;;;;;;;8.90;5.63;;;11.80;99.90;11.10;99883;;;;562270;251;24115;-79
2022/06/22 00:24:27;;;;;;;9.57;4.83;;;11.80;99.90;11.10;99879;;;;562656;251;24112;-80
2022/06/22 00:26:55;;;;;;;10.93;4.43;;;11.70;99.90;11.00;99865;;;;567042;251;24135;-76
2022/06/22 00:29:23;;;;;;;5.80;4.50;;;11.70;99.90;11.00;99875;;;;571355;251;24102;-84
2022/06/22 00:31:52;;;;;;;10.63;5.17;;;11.70;99.90;11.00;99870;;;;562698;251;24107;-84
2022/06/22 00:34:32;;;;;;;6.67;4.60;;;11.60;99.90;11.10;99870;;;;560116;251;24112;-79
2022/06/22 00:37:05;;;;;;;7.23;4.07;;;11.70;99.90;11.00;99872;;;;562639;251;24134;-77
2022/06/22 00:39:33;;;;;;;8.83;4.93;;;11.60;99.90;11.00;99868;;;;562421;251;24144;-83
2022/06/22 00:42:16;;;;;;;8.47;5.63;;;11.60;99.90;11.00;99874;;;;562383;251;24250;-81
2022/06/22 00:44:53;;;;;;;6.63;4.30;;;11.60;99.90;11.00;99875;;;;566616;251;24131;-79
2022/06/22 00:47:45;;;;;;;5.50;4.07;;;11.60;99.90;11.00;99868;;;;562685;251;24103;-84
2022/06/22 00:50:15;;;;;;;5.60;4.63;;;11.60;99.90;11.00;99868;;;;571426;250;24118;-83
2022/06/22 00:53:04;;;;;;;10.17;5.13;;;11.60;99.90;11.00;99879;;;;562339;251;24171;-83
2022/06/22 00:55:36;;;;;;;6.80;4.27;;;11.60;99.90;10.90;99871;;;;561346;251;24126;-83
2022/06/22 00:58:35;;;;;;;8.23;4.53;;;11.60;99.90;11.00;99877;;;;562142;251;24107;-78
2022/06/22 01:01:09;;;;;;;12.30;4.83;;;11.60;99.90;10.90;99875;;;;561892;251;24108;-79
2022/06/22 01:03:43;;;;;;;11.50;5.27;;;11.60;99.90;10.90;99866;;;;561737;251;24216;-79
2022/06/22 01:06:20;;;;;;;7.30;5.27;;;11.60;99.90;10.90;99865;;;;546048;251;24124;-77
2022/06/22 01:09:00;;;;;;;6.57;4.80;;;11.50;99.90;10.90;99865;;;;561294;251;24118;-78
2022/06/22 01:14:34;;;;;;;8.50;4.67;;;11.50;99.90;10.90;99861;;;;572077;251;24167;-78
2022/06/22 01:17:02;;;;;;;6.97;4.67;;;11.50;99.90;10.90;99857;;;;560921;251;24109;-78
2022/06/22 01:19:39;;;;;;;13.40;4.80;;;11.50;99.90;10.80;99867;;;;565850;251;24115;-77
2022/06/22 01:22:44;;;;;;;7.37;4.17;;;11.50;99.90;10.90;99863;;;;561856;251;24119;-77
2022/06/22 01:25:18;;;;;;;7.33;5.10;;;11.50;99.90;10.90;99869;;;;561611;251;24105;-81
2022/06/22 01:27:47;;;;;;;6.87;5.00;;;11.50;99.90;10.90;99863;;;;566647;251;24122;-79
2022/06/22 01:30:28;;;;;;;6.83;4.90;;;11.50;99.90;10.90;99866;;;;562580;251;24129;-76
2022/06/22 01:33:00;;;;;;;7.93;4.73;;;11.50;99.90;10.90;99868;;;;570607;251;24119;-76
2022/06/22 01:35:25;;;;;;;7.80;5.03;;;11.50;99.90;10.80;99874;;;;562471;251;24146;-78
2022/06/22 01:37:53;;;;;;;7.17;4.63;;;11.50;99.90;10.80;99872;;;;560492;251;24164;-78
2022/06/22 01:40:45;;;;;;;8.17;5.17;;;11.40;99.90;10.70;99867;;;;560079;251;24111;-78
2022/06/22 01:43:10;;;;;;;4.77;4.37;;;11.40;99.90;10.70;99865;;;;562361;251;24117;-78
2022/06/22 01:45:43;;;;;;;6.93;4.33;;;11.30;99.90;10.70;99862;;;;561913;251;24163;-80
2022/06/22 01:48:26;;;;;;;12.03;4.67;;;11.30;99.90;10.70;99859;;;;560796;251;24119;-76
2022/06/22 01:51:09;;;;;;;6.57;4.60;;;11.30;99.90;10.70;99874;;;;568590;251;24118;-77
2022/06/22 01:53:52;;;;;;;9.07;5.67;;;11.40;99.90;10.70;99874;;;;562347;251;24164;-77
2022/06/22 01:56:37;;;;;;;8.27;5.03;;;11.40;99.90;10.70;99879;;;;561250;251;24161;-77
2022/06/22 01:59:24;;;;;;;11.27;5.17;;;11.40;99.90;10.70;99878;;;;562026;251;24112;-77
2022/06/22 02:01:58;;;;;;;7.97;5.10;;;11.30;99.90;10.70;99881;;;;562514;251;24103;-76
2022/06/22 02:05:00;;;;;;;7.43;5.17;;;11.30;99.90;10.70;99889;;;;562549;251;24138;-77
2022/06/22 02:07:46;;;;;;;7.73;5.20;;;11.30;99.90;10.70;99880;;;;562642;251;24099;-78
2022/06/22 02:10:23;;;;;;;9.10;5.17;;;11.30;99.90;10.70;99876;;;;562923;251;24119;-78
2022/06/22 02:12:59;;;;;;;5.13;4.33;;;11.30;99.90;10.70;99884;;;;562479;251;24142;-77
2022/06/22 02:15:39;;;;;;;15.07;8.03;;;11.30;99.90;10.70;99888;;;;565994;251;35419;-80
2022/06/22 02:18:17;;;;;;;12.77;9.13;;;11.30;99.90;10.70;99879;;;;563392;251;35465;-82
2022/06/22 02:20:45;;;;;;;12.67;6.90;;;11.30;99.90;10.70;99879;;;;559970;249;24119;-81
2022/06/22 02:23:21;;;;;;;12.37;6.23;;;11.30;99.90;10.70;99884;;;;563839;251;24110;-82
2022/06/22 02:25:52;;;;;;;10.60;5.70;;;11.30;99.90;10.70;99886;;;;563482;251;24095;-81
2022/06/22 02:28:22;;;;;;;6.53;5.23;;;11.40;99.90;10.70;99893;;;;571031;248;24219;-79
2022/06/22 02:30:48;;;;;;;6.47;4.37;;;11.40;99.90;10.80;99898;;;;563327;251;24138;-77
2022/06/22 02:33:16;;;;;;;11.13;5.60;;;11.40;99.90;10.80;99896;;;;557125;255;24174;-78
2022/06/22 02:35:43;;;;;;;9.53;5.57;;;11.40;99.90;10.80;99899;;;;562989;251;24160;-78
2022/06/22 02:38:11;;;;;;;9.00;5.40;;;11.40;99.90;10.80;99905;;;;557812;254;24088;-82
2022/06/22 02:44:29;;;;;;;6.70;4.67;;;11.40;99.90;10.80;99895;;;;566925;250;25146;-80
2022/06/22 02:45:55;;;;;;;6.60;4.70;;;11.40;99.90;10.90;99905;;;;566978;250;24082;-83
2022/06/22 02:48:27;;;;;;;5.77;5.17;;;11.50;99.90;10.90;99904;;;;566872;250;24085;-83
2022/06/22 02:51:04;;;;;;;14.10;5.53;;;11.50;99.90;10.90;99903;;;;566851;250;24101;-80
2022/06/22 02:53:35;;;;;;;12.50;5.10;;;11.50;99.90;11.00;99917;;;;574511;250;24111;-79
2022/06/22 02:56:05;;;;;;;7.60;5.67;;;11.60;99.90;11.00;99910;;;;574912;250;24097;-83
2022/06/22 02:58:33;;;;;;;7.33;4.73;;;11.60;99.90;11.00;99919;;;;574862;250;24085;-84
2022/06/22 03:01:02;;;;;;;9.23;5.43;;;11.70;99.90;11.10;99914;;;;566824;250;24119;-78
2022/06/22 03:03:30;;;;;;;12.93;6.13;;;11.70;99.90;11.20;99921;;;;569728;249;24230;-79
2022/06/22 03:06:01;;;;;;;13.93;8.40;;;11.80;99.90;11.20;99912;;;;545291;257;35792;-83
2022/06/22 03:08:26;;;;;;;10.03;6.40;;;11.80;99.90;11.30;99916;;;;558190;256;24128;-81
2022/06/22 03:11:02;;;;;;;11.80;5.97;;;11.90;99.90;11.40;99929;;;;571515;251;24130;-79
2022/06/22 03:13:37;;;;;;;8.43;5.83;;;12.40;99.90;11.90;99926;;;;552244;256;24133;-82
2022/06/22 03:16:07;;;;;;;15.27;5.87;;;13.10;99.90;12.70;99931;;;;562864;251;24116;-80
2022/06/22 03:18:33;;;;;;;9.93;6.20;;;13.10;99.90;13.50;99928;;;;562431;251;25147;-80
2022/06/22 03:21:04;;;;;;;9.27;5.80;;;13.90;99.90;14.20;99932;;;;561947;251;24139;-82
2022/06/22 03:23:35;;;;;;;7.57;6.40;;;14.60;99.90;14.90;99928;;;;562574;251;24104;-83
2022/06/22 03:26:12;;;;;;;8.03;5.30;;;15.40;99.90;15.60;99928;;;;560918;251;24108;-83
2022/06/22 03:28:40;;;;;;;5.37;4.87;;;16.20;99.90;16.30;99940;;;;562490;251;24111;-82
2022/06/22 03:31:17;;;;;;;5.30;4.30;;;17.70;99.90;17.00;99937;;;;562433;251;24118;-83
2022/06/22 03:33:51;;;;;;;6.57;3.87;;;18.40;99.90;17.70;99940;;;;563589;251;24098;-84
2022/06/22 03:36:19;;;;;;;8.27;3.50;;;18.40;99.90;18.40;99939;;;;563544;251;24096;-83
2022/06/22 03:38:53;;;;;;;7.87;4.20;;;19.10;99.90;19.00;99933;;;;563401;251;25166;-84
2022/06/22 03:41:21;;;;;;;4.57;3.17;;;19.70;99.90;19.60;99933;;;;563438;251;24113;-82
2022/06/22 03:44:06;;;;;;;3.73;2.70;;;20.30;99.90;20.10;99935;;;;562822;251;24171;-85
2022/06/22 03:46:55;;;;;;;5.03;2.77;;;20.80;99.90;20.60;99931;;;;570155;251;24113;-83
2022/06/22 03:49:35;;;;;;;2.50;2.40;;;21.40;99.90;21.00;99929;;;;560177;251;24130;-84
2022/06/22 03:52:17;;;;;;;4.70;2.90;;;21.90;99.90;21.40;99928;;;;562493;251;24161;-83
2022/06/22 03:54:51;;;;;;;6.03;3.23;;;22.30;99.90;21.90;99923;;;;562341;251;24181;-83
2022/06/22 03:57:19;;;;;;;3.90;2.83;;;22.70;99.90;22.40;99923;;;;565207;251;24095;-84
2022/06/22 03:59:50;;;;;;;4.23;2.60;;;23.20;99.90;22.90;99921;;;;562077;251;24111;-85
2022/06/22 04:02:18;;;;;;;3.83;2.53;;;24.30;99.90;23.40;99920;;;;562129;251;23128;-84
2022/06/22 04:04:43;;;;;;;4.73;2.60;;;24.30;99.90;24.10;99923;;;;562186;251;23126;-85
2022/06/22 04:07:14;;;;;;;4.17;2.50;;;24.90;99.90;24.60;99930;;;;562705;251;24165;-84
2022/06/22 04:09:42;;;;;;;3.50;2.73;;;25.50;99.90;25.10;99933;;;;570977;249;24142;-85
2022/06/22 04:12:18;;;;;;;6.30;4.17;;;26.10;99.90;25.80;99938;;;;562249;251;24110;-85
2022/06/22 04:14:52;;;;;;;3.40;2.13;;;26.70;99.90;26.70;99943;;;;557340;251;23125;-84
2022/06/22 04:17:34;;;;;;;5.30;2.85;;;27.60;98.60;27.30;99943;;;;562431;251;23121;-84
2022/06/22 04:20:11;;;;;;;4.22;2.70;;;28.30;95.20;27.80;99949;;;;562494;251;23144;-83
2022/06/22 04:22:39;;;;;;;6.05;2.55;;;28.90;92.00;28.40;99944;;;;551351;251;23120;-83
2022/06/22 04:25:31;;;;;;;4.40;2.78;;;29.40;89.60;29.10;99947;;;;560790;249;35505;-80
2022/06/22 04:27:59;;;;;;;2.12;1.98;;;30.60;79.00;29.50;99953;;;;569508;251;23117;-83
2022/06/22 04:30:33;;;;;;;6.28;2.42;;;30.50;78.90;30.20;99950;;;;562453;251;23114;-82
2022/06/22 04:33:26;;;;;;;3.55;2.58;;;31.90;72.50;30.90;99951;;;;561121;251;23114;-83
2022/06/22 04:36:12;;;;;;;3.17;2.22;;;31.80;72.40;31.50;99952;;;;562503;251;23139;-80
2022/06/22 04:39:01;;;;;;;3.70;2.45;;;32.60;68.60;31.90;99958;;;;570641;248;23133;-79
2022/06/22 04:41:32;;;;;;;4.72;2.35;;;33.10;64.80;32.40;99970;;;;562836;251;24151;-79
2022/06/22 04:44:03;;;;;;;2.92;2.60;;;33.60;62.90;32.80;99976;;;;562977;249;23121;-79
2022/06/22 04:46:30;;;;;;;2.90;2.10;;;34.00;61.10;33.20;99977;;;;569299;250;24146;-82
2022/06/22 04:48:58;;;;;;;6.68;2.83;;;34.40;59.70;33.60;99972;;;;566296;251;23187;-78
2022/06/22 04:51:32;;;;;;;5.07;2.40;;;34.80;58.60;34.20;99981;;;;558365;251;35426;-77
2022/06/22 04:53:57;;;;;;;3.20;2.33;;;35.30;56.20;34.40;99985;;;;563463;251;23123;-78
2022/06/22 04:56:31;;;;;;;3.15;2.30;;;35.70;55.80;35.00;99985;;;;563051;251;23131;-80
2022/06/22 04:59:04;;;;;;;4.32;2.00;;;36.70;53.50;35.50;99997;;;;563102;251;23128;-80
2022/06/22 05:01:39;;;;;;;2.12;1.90;;;36.70;53.50;36.10;99996;;;;563606;251;23192;-83
2022/06/22 05:04:19;;;;;;;5.40;1.98;;;37.20;51.10;36.10;100002;;;;563367;251;23121;-84
2022/06/22 05:06:59;;;;;;;3.55;1.80;;;37.40;51.10;36.40;99998;;;;562224;251;24177;-84
2022/06/22 05:09:42;;;;;;;3.20;2.28;;;37.80;49.80;36.50;100002;;;;566256;251;23112;-84
2022/06/22 05:12:13;;;;;;;4.80;2.00;;;37.80;49.80;36.50;100004;;;;551558;256;23134;-82
2022/06/22 05:14:41;;;;;;;3.40;1.95;;;37.80;48.60;36.90;100003;;;;562684;251;23202;-86
2022/06/22 05:17:17;;;;;;;2.40;1.95;;;38.00;48.80;37.20;100004;;;;563500;251;23226;-84
2022/06/22 05:19:50;;;;;;;3.65;1.70;;;38.40;48.20;37.50;100017;;;;553496;256;24073;-79
2022/06/22 05:22:18;;;;;;;3.28;1.90;;;38.70;47.50;37.70;100009;;;;558675;254;23111;-82
2022/06/22 05:24:46;;;;;;;5.85;2.28;;;38.80;47.50;37.50;100007;;;;560898;250;23213;-84
2022/06/22 05:27:14;;;;;;;1.92;1.83;;;38.80;47.20;37.90;100001;;;;562091;251;24203;-83
2022/06/22 05:29:44;;;;;;;5.90;1.90;;;38.90;46.90;38.40;100005;;;;562276;251;23131;-84
2022/06/22 05:32:15;;;;;;;2.83;1.50;;;39.40;46.40;38.80;100015;;;;565792;251;23124;-87
2022/06/22 05:34:43;;;;;;;3.28;1.80;;;39.80;45.10;38.80;100017;;;;562393;251;23118;-86
2022/06/22 05:37:23;;;;;;;3.25;1.80;;;39.70;45.00;39.30;100027;;;;565766;251;23111;-86
2022/06/22 05:39:50;;;;;;;1.87;1.58;;;40.20;45.10;40.00;100032;;;;560318;256;23144;-85
2022/06/22 05:42:18;;;;;;;5.95;2.20;;;40.80;44.50;40.30;100018;;;;562908;251;24140;-81
2022/06/22 05:44:46;;;;;;;3.97;1.77;;;41.20;43.60;40.70;100022;;;;560587;251;23136;-85
2022/06/22 05:47:14;;;;;;;2.62;1.70;;;41.40;43.20;40.90;100022;;;;560139;251;24170;-83
2022/06/22 05:50:04;;;;;;;3.78;1.50;;;42.00;42.50;41.30;100020;;;;558647;251;23129;-84
2022/06/22 05:52:32;;;;;;;3.87;1.87;;;41.90;42.50;42.10;100019;;;;562040;251;24152;-83
2022/06/22 05:55:00;;;;;;;1.70;1.60;;;42.70;41.70;42.60;100016;;;;561859;251;23183;-84
2022/06/22 05:57:36;;;;;;;4.20;2.17;;;43.30;41.40;42.70;100023;;;;563129;251;23146;-83
2022/06/22 06:00:19;;;;;;;2.03;1.90;;;43.40;40.50;43.10;100020;;;;566388;251;23137;-83
2022/06/22 06:03:08;;;;;;;4.87;2.03;;;43.70;40.40;43.60;100025;;;;572311;248;23160;-83
2022/06/22 06:05:44;;;;;;;3.22;1.77;;;44.30;39.80;43.70;100033;;;;570846;248;23164;-80
2022/06/22 06:08:36;;;;;;;4.68;2.17;;;44.40;38.90;42.90;100030;;;;562964;251;24165;-79
2022/06/22 06:11:04;;;;;;;3.80;1.90;;;43.80;39.10;41.70;100037;;;;562272;251;24183;-85
2022/06/22 06:13:38;;;;;;;4.50;1.85;;;42.90;39.10;40.40;100032;;;;566289;251;23136;-84
2022/06/22 06:16:25;;;;;;;6.37;2.10;;;41.70;40.40;39.10;100029;;;;562911;251;23231;-78
2022/06/22 06:18:56;;;;;;;2.33;1.75;;;40.20;41.50;38.40;100036;;;;562827;251;23241;-81
2022/06/22 06:21:20;;;;;;;2.67;1.90;;;39.20;42.70;38.60;100043;;;;565850;251;24167;-84
2022/06/22 06:24:02;;;;;;;2.05;1.60;;;39.00;43.00;38.60;100039;;;;553107;256;23164;-84
2022/06/22 06:29:49;;;;;;;1.95;1.35;;;39.30;42.60;39.50;100052;;;;563063;251;23146;-81
2022/06/22 06:32:20;;;;;;;1.90;1.40;;;39.70;42.50;39.20;100057;;;;562792;251;24155;-79
2022/06/22 06:34:57;;;;;;;3.03;1.60;;;39.70;42.20;37.70;100061;;;;561653;251;23133;-82
2022/06/22 06:37:25;;;;;;;2.15;1.65;;;38.50;43.20;37.20;100057;;;;562574;251;23180;-82
2022/06/22 06:39:53;;;;;;;2.45;1.60;;;37.80;43.70;37.10;100062;;;;561977;251;23121;-78
2022/06/22 06:42:26;;;;;;;3.35;2.03;;;37.50;44.10;38.30;100056;;;;562973;251;26391;-76
2022/06/22 06:44:54;;;;;;;2.80;2.47;;;38.30;45.00;40.50;100050;;;;562986;251;23141;-78
2022/06/22 06:47:21;;;;;;;3.50;1.73;;;40.20;43.10;42.00;100056;;;;562983;251;23118;-79
2022/06/22 06:49:49;;;;;;;2.05;1.80;;;41.80;41.00;43.40;100052;;;;562668;251;23189;-79
2022/06/22 06:53:01;;;;;;;4.45;1.73;;;43.20;39.60;44.30;100060;;;;562460;251;23144;-79
2022/06/22 06:55:34;;;;;;;3.33;1.40;;;44.40;37.90;41.60;100066;;;;561831;251;23211;-78
2022/06/22 06:58:14;;;;;;;2.55;1.52;;;40.80;39.60;39.50;100067;;;;562205;251;23119;-83
2022/06/22 07:00:42;;;;;;;1.48;1.33;;;40.80;39.60;39.00;100069;;;;570821;251;24205;-79
2022/06/22 07:03:16;;;;;;;2.60;1.77;;;39.80;41.30;38.60;100075;;;;562418;251;23124;-77
2022/06/22 07:05:44;;;;;;;2.80;1.60;;;39.20;41.30;39.20;100064;;;;567605;244;23101;-79
2022/06/22 07:08:21;;;;;;;3.03;1.50;;;39.40;41.20;39.80;100076;;;;588558;242;23052;-79
2022/06/22 07:11:02;;;;;;;2.97;1.87;;;40.70;40.20;40.70;100076;;;;588942;244;24111;-79
2022/06/22 07:13:51;;;;;;;3.17;1.90;;;40.70;40.10;41.00;100082;;;;589007;243;23065;-80
2022/06/22 07:16:20;;;;;;;4.50;1.92;;;41.10;38.90;41.70;100084;;;;580761;244;23157;-80
2022/06/22 07:18:48;;;;;;;7.10;1.62;;;42.40;38.80;42.50;100089;;;;585840;244;24102;-80
2022/06/22 07:21:25;;;;;;;2.42;1.70;;;42.40;38.70;43.50;100076;;;;579622;244;23108;-80
2022/06/22 07:24:02;;;;;;;2.65;1.73;;;43.40;38.00;44.40;100069;;;;587442;244;23084;-79
2022/06/22 07:26:47;;;;;;;1.95;1.80;;;44.40;36.90;45.20;100074;;;;588025;244;23091;-80
2022/06/22 07:29:30;;;;;;;2.42;1.85;;;45.30;36.00;45.60;100079;;;;588220;244;23103;-79
2022/06/22 07:32:11;;;;;;;3.28;1.70;;;45.80;35.20;45.70;100079;;;;587654;244;23095;-81
2022/06/22 07:34:51;;;;;;;2.70;1.50;;;46.00;34.40;44.80;100082;;;;579391;244;23054;-81
2022/06/22 07:37:19;;;;;;;2.97;2.65;;;45.40;34.60;44.60;100083;;;;587891;244;23082;-82
2022/06/22 07:39:58;;;;;;;4.05;1.92;;;45.00;36.00;44.30;100080;;;;587877;244;23066;-81
2022/06/22 07:42:26;;;;;;;5.43;2.28;;;44.90;35.70;42.50;100087;;;;577327;244;24159;-80
2022/06/22 07:44:54;;;;;;;3.78;1.95;;;43.40;35.70;41.90;100086;;;;579205;244;23076;-81
2022/06/22 07:47:37;;;;;;;5.40;1.85;;;42.40;37.50;43.20;100079;;;;588058;243;23057;-82
2022/06/22 07:50:23;;;;;;;2.17;1.58;;;43.60;36.70;43.70;100096;;;;578775;244;23068;-83
2022/06/22 07:52:51;;;;;;;2.85;2.22;;;43.60;36.70;42.90;100095;;;;552980;250;24083;-82
2022/06/22 07:55:43;;;;;;;2.58;2.00;;;43.20;36.90;43.10;100086;;;;563460;253;23134;-83
2022/06/22 07:58:35;;;;;;;3.20;2.17;;;43.30;37.20;43.10;100097;;;;573741;250;23078;-85
2022/06/22 08:01:04;;;;;;;2.20;1.83;;;43.20;37.30;42.80;100096;;;;555354;255;23153;-82
2022/06/22 08:03:49;;;;;;;2.37;1.73;;;43.50;37.60;43.40;100095;;;;573758;250;23200;-84
2022/06/22 08:06:25;;;;;;;3.60;2.10;;;42.90;36.60;42.10;100101;;;;563752;253;23115;-84
2022/06/22 08:09:01;;;;;;;5.68;2.30;;;42.90;36.50;41.80;100092;;;;574498;247;23053;-85
2022/06/22 08:11:38;;;;;;;4.15;2.10;;;42.10;38.20;43.00;100090;;;;555612;255;23166;-86
2022/06/22 08:14:24;;;;;;;1.73;1.67;;;42.80;37.60;44.20;100084;;;;574662;247;24121;-82
2022/06/22 08:17:00;;;;;;;3.12;1.85;;;44.00;36.40;45.10;100100;;;;555782;255;23167;-81
2022/06/22 08:19:28;;;;;;;4.00;2.00;;;45.10;35.50;44.20;100101;;;;575566;248;23075;-85
2022/06/22 08:21:58;;;;;;;3.53;1.92;;;44.60;35.50;44.80;100102;;;;565139;254;23145;-86
2022/06/22 08:24:24;;;;;;;2.22;2.05;;;44.90;36.00;44.10;100107;;;;575586;248;23105;-82
2022/06/22 08:26:52;;;;;;;4.30;1.90;;;44.90;35.80;41.00;100099;;;;567031;250;23063;-86
2022/06/22 08:29:23;;;;;;;6.57;2.12;;;40.50;38.40;39.10;100105;;;;564706;253;23116;-82
2022/06/22 08:31:55;;;;;;;5.62;3.10;;;40.50;40.10;40.30;100107;;;;566598;250;24101;-85
2022/06/22 08:34:24;;;;;;;3.47;2.55;;;42.10;38.70;42.50;100104;;;;562757;253;23148;-82
2022/06/22 08:36:54;;;;;;;2.53;1.95;;;42.10;38.70;44.20;100106;;;;572058;249;23041;-84
2022/06/22 08:39:40;;;;;;;2.28;2.08;;;43.90;37.50;45.00;100102;;;;563842;255;24171;-85
2022/06/22 08:42:30;;;;;;;6.62;2.10;;;44.70;36.50;43.90;100108;;;;574864;248;24115;-81
2022/06/22 08:45:37;;;;;;;3.53;2.10;;;42.50;36.70;40.90;100118;;;;556006;255;23137;-80
2022/06/22 08:48:51;;;;;;;3.42;1.80;;;42.50;36.70;39.00;100121;;;;575026;250;23065;-84
2022/06/22 08:51:52;;;;;;;5.35;2.03;;;40.20;39.30;40.80;100107;;;;564291;252;24152;-83
2022/06/22 08:54:57;;;;;;;3.60;1.80;;;40.70;39.60;43.40;100109;;;;574956;250;23049;-81
2022/06/22 08:58:08;;;;;;;4.35;1.80;;;43.00;37.50;44.30;100108;;;;564047;252;23128;-82
2022/06/22 09:00:59;;;;;;;3.20;1.58;;;44.50;35.80;43.00;100112;;;;574307;247;23081;-82
2022/06/22 09:03:51;;;;;;;3.90;1.90;;;43.90;35.90;43.70;100119;;;;552020;255;23166;-84
2022/06/22 09:06:28;;;;;;;2.70;1.58;;;44.20;35.70;45.20;100114;;;;569990;250;23053;-81
2022/06/22 09:09:29;;;;;;;4.60;2.62;;;45.40;35.40;46.80;100116;;;;560993;255;23126;-82
2022/06/22 09:12:15;;;;;;;2.55;1.85;;;47.00;34.40;48.00;100113;;;;566299;250;23085;-85
2022/06/22 09:14:49;;;;;;;1.75;1.65;;;48.30;32.60;47.00;100119;;;;563940;255;23125;-83
2022/06/22 09:17:47;;;;;;;3.53;1.70;;;48.20;32.30;44.70;100116;;;;574583;250;26246;-83
2022/06/22 09:20:21;;;;;;;2.58;2.00;;;46.40;33.10;41.20;100124;;;;556023;255;23121;-86
2022/06/22 09:23:02;;;;;;;4.00;2.12;;;43.30;35.50;38.60;100128;;;;566502;250;23052;-81
2022/06/22 09:25:47;;;;;;;3.72;2.10;;;40.60;37.80;36.60;100131;;;;556201;255;23133;-82
2022/06/22 09:28:26;;;;;;;2.67;1.80;;;38.20;40.20;35.30;100130;;;;575204;250;23043;-84
2022/06/22 09:31:09;;;;;;;1.83;1.73;;;36.40;41.90;36.80;100128;;;;555947;254;23149;-84
2022/06/22 09:33:58;;;;;;;2.78;1.67;;;36.60;43.90;39.60;100128;;;;574876;249;24070;-83
2022/06/22 09:37:03;;;;;;;1.90;1.70;;;39.10;42.00;42.10;100136;;;;556705;254;23135;-83
2022/06/22 09:39:49;;;;;;;4.30;1.85;;;41.80;39.30;43.90;100125;;;;566969;250;23065;-82
2022/06/22 09:42:41;;;;;;;3.87;1.98;;;44.20;36.70;42.90;100112;;;;555291;254;23128;-86
2022/06/22 09:45:33;;;;;;;5.78;1.90;;;44.10;34.90;42.20;100121;;;;566407;250;23059;-83
2022/06/22 09:48:41;;;;;;;3.78;1.70;;;43.40;36.00;43.60;100123;;;;564626;254;23133;-84
2022/06/22 09:51:33;;;;;;;2.72;1.48;;;44.30;35.70;45.20;100117;;;;575026;246;23127;-83
2022/06/22 09:57:11;;;;;;;3.80;1.60;;;47.30;33.40;47.60;100133;;;;566304;250;23091;-85
2022/06/22 09:59:51;;;;;;;3.20;1.67;;;49.00;32.00;47.90;100140;;;;563006;253;23126;-84
2022/06/22 10:02:43;;;;;;;3.12;1.77;;;49.00;32.00;48.50;100134;;;;565661;250;24080;-86
2022/06/22 10:05:54;;;;;;;4.22;1.95;;;49.60;31.00;49.10;100131;;;;564171;255;23177;-84
2022/06/22 10:08:53;;;;;;;1.77;1.60;;;50.30;30.00;49.20;100134;;;;574630;249;23055;-85
2022/06/22 10:11:36;;;;;;;4.37;1.90;;;50.40;30.00;48.90;100144;;;;563990;250;23101;-84
2022/06/22 10:14:49;;;;;;;2.60;1.85;;;50.30;29.90;48.90;100142;;;;574513;250;24190;-84
2022/06/22 10:17:45;;;;;;;3.42;1.95;;;49.30;30.80;47.80;100147;;;;563946;250;23105;-85
2022/06/22 10:20:22;;;;;;;7.18;1.70;;;49.20;30.70;45.80;100149;;;;574139;250;23067;-85
2022/06/22 10:23:23;;;;;;;4.80;2.25;;;45.90;32.60;44.40;100152;;;;554949;255;23140;-82
2022/06/22 10:26:19;;;;;;;5.25;1.70;;;45.80;32.50;42.60;100151;;;;566037;250;23044;-83
2022/06/22 10:29:17;;;;;;;4.45;1.30;;;44.00;34.00;42.60;100151;;;;555520;255;23204;-83
2022/06/22 10:32:17;;;;;;;4.68;1.83;;;43.40;35.00;42.80;100147;;;;565495;250;23140;-82
2022/06/22 10:34:53;;;;;;;3.15;1.45;;;43.40;34.30;42.50;100138;;;;555932;255;23200;-82
2022/06/22 10:37:52;;;;;;;1.52;1.40;;;43.20;34.40;41.80;100138;;;;565780;250;23070;-82
2022/06/22 10:46:12;;;;;;;4.45;1.87;;;40.30;37.60;38.30;100131;;;;556869;254;23119;-84
2022/06/22 10:48:51;;;;;;;4.43;1.65;;;38.80;39.30;37.50;100131;;;;575103;247;24087;-82
2022/06/22 10:51:40;;;;;;;9.70;2.28;;;37.90;40.60;36.30;100145;;;;564102;253;23215;-84
2022/06/22 10:54:05;;;;;;;1.87;1.08;;;36.60;41.50;34.90;100141;;;;574136;247;23096;-83
2022/06/22 10:56:57;;;;;;;3.85;1.62;;;35.10;41.50;33.80;100129;;;;555923;254;23193;-84
2022/06/22 11:00:01;;;;;;;3.37;1.40;;;34.00;42.60;32.90;100124;;;;575198;250;23088;-84
2022/06/22 11:03:03;;;;;;;4.95;1.30;;;33.00;44.90;32.10;100127;;;;564079;251;23129;-83
2022/06/22 11:05:59;;;;;;;4.70;1.90;;;32.20;45.90;31.30;100140;;;;574661;249;24087;-82
2022/06/22 11:09:07;;;;;;;7.93;1.80;;;31.40;48.30;30.60;100136;;;;555649;255;23167;-81
2022/06/22 11:11:47;;;;;;;1.95;1.50;;;30.00;50.00;29.70;100134;;;;566407;250;23048;-82
2022/06/22 11:15:04;;;;;;;3.05;1.50;;;29.80;49.80;29.00;100130;;;;556060;255;23245;-84
2022/06/22 11:17:45;;;;;;;3.50;1.50;;;29.30;50.70;28.80;100132;;;;574917;247;23059;-85
2022/06/22 11:20:32;;;;;;;1.73;1.35;;;28.90;52.70;28.50;100126;;;;563856;253;23128;-81
2022/06/22 11:23:00;;;;;;;1.23;1.15;;;28.60;52.60;28.50;100123;;;;574565;250;23104;-83
2022/06/22 11:31:47;;;;;;;3.30;3.00;;;28.80;52.90;28.60;100128;;;;558174;255;23487;-84
2022/06/22 11:34:40;;;;;;;3.20;2.70;;;28.90;55.00;28.30;100132;;;;566065;250;24058;-82
2022/06/22 11:37:25;;;;;;;3.93;2.10;;;28.70;55.30;27.80;100136;;;;563753;254;24154;-83
2022/06/22 11:40:23;;;;;;;4.50;2.73;;;28.30;55.20;27.40;100137;;;;573822;248;23045;-82
2022/06/22 11:43:00;;;;;;;2.30;1.70;;;27.90;56.00;27.00;100136;;;;563856;252;23247;-83
2022/06/22 11:45:56;;;;;;;9.10;2.30;;;27.10;57.30;26.50;100138;;;;574096;247;24046;-81
2022/06/22 11:49:00;;;;;;;8.13;2.57;;;27.00;57.30;26.10;100136;;;;555615;255;23197;-82
2022/06/22 11:51:46;;;;;;;5.97;2.67;;;26.70;58.60;25.90;100130;;;;574651;249;23068;-81
2022/06/22 11:54:44;;;;;;;7.90;2.07;;;26.40;59.10;25.70;100127;;;;555877;254;23150;-82
2022/06/22 11:57:26;;;;;;;7.57;2.47;;;26.30;59.90;25.30;100131;;;;575038;247;24109;-83
2022/06/22 12:00:06;;;;;;;3.87;2.63;;;25.90;59.90;24.70;100127;;;;563703;254;24169;-80
2022/06/22 12:03:04;;;;;;;3.37;2.10;;;25.40;61.00;24.30;100125;;;;566557;250;24039;-80
2022/06/22 12:05:44;;;;;;;7.33;2.27;;;25.00;62.20;23.90;100117;;;;563408;253;24123;-81
2022/06/22 12:08:52;;;;;;;3.53;2.00;;;24.30;65.00;23.70;100111;;;;567180;247;24122;-83
2022/06/22 12:11:40;;;;;;;3.47;1.60;;;24.20;65.00;23.40;100114;;;;564433;251;24153;-84
2022/06/22 12:17:22;;;;;;;3.73;1.93;;;23.60;65.30;22.80;100114;;;;564253;251;24196;-81
2022/06/22 12:20:26;;;;;;;7.67;2.07;;;23.40;66.80;22.50;100120;;;;566347;250;24133;-82
2022/06/22 12:23:21;;;;;;;3.73;1.50;;;23.00;68.10;22.10;100118;;;;563024;255;24187;-82
2022/06/22 12:26:01;;;;;;;3.83;1.90;;;22.70;68.40;21.80;100111;;;;574488;247;24104;-84
2022/06/22 12:28:38;;;;;;;9.15;3.42;;;22.40;69.80;21.70;100105;;;;551191;255;35377;-83
2022/06/22 12:31:17;;;;;;;3.97;1.53;;;22.20;70.10;21.60;100109;;;;574346;250;24099;-80
2022/06/22 12:33:59;;;;;;;2.00;1.77;;;22.10;70.70;21.50;100111;;;;563876;253;23140;-80